sensor_id;sensor_type;location;lat;lon;timestamp;pressure;altitude;pressure_sealevel;temperature;humidity
22580;BME280;11456;47.030;15.396;2023-01-30T00:00:58;97984.09;;;-0.19;91.14
22580;BME280;11456;47.030;15.396;2023-01-30T00:03:25;97977.75;;;-0.15;91.48
22580;BME280;11456;47.030;15.396;2023-01-30T00:05:52;97973.06;;;-0.10;90.22
22580;BME280;11456;47.030;15.396;2023-01-30T00:08:18;97979.13;;;-0.25;90.52
22580;BME280;11456;47.030;15.396;2023-01-30T00:10:45;97975.22;;;-0.18;89.75
22580;BME280;11456;47.030;15.396;2023-01-30T00:13:12;97961.06;;;-0.17;89.75
22580;BME280;11456;47.030;15.396;2023-01-30T00:15:42;97964.97;;;-0.24;90.55
22580;BME280;11456;47.030;15.396;2023-01-30T00:18:08;97959.44;;;-0.36;90.96
22580;BME280;11456;47.030;15.396;2023-01-30T00:20:35;97962.03;;;-0.35;90.66
22580;BME280;11456;47.030;15.396;2023-01-30T00:23:02;97951.97;;;-0.28;89.99
22580;BME280;11456;47.030;15.396;2023-01-30T00:25:29;97942.88;;;-0.40;90.09
22580;BME280;11456;47.030;15.396;2023-01-30T00:28:00;97945.47;;;-0.38;89.81
22580;BME280;11456;47.030;15.396;2023-01-30T00:30:28;97951.09;;;-0.63;90.27
22580;BME280;11456;47.030;15.396;2023-01-30T00:32:56;97942.72;;;-0.71;90.63
22580;BME280;11456;47.030;15.396;2023-01-30T00:35:23;97942.16;;;-0.78;91.07
22580;BME280;11456;47.030;15.396;2023-01-30T00:37:57;97941.13;;;-0.75;90.95
22580;BME280;11456;47.030;15.396;2023-01-30T00:40:24;97940.81;;;-0.69;90.99
22580;BME280;11456;47.030;15.396;2023-01-30T00:42:52;97936.81;;;-0.95;89.88
22580;BME280;11456;47.030;15.396;2023-01-30T00:45:37;97939.16;;;-0.89;89.84
22580;BME280;11456;47.030;15.396;2023-01-30T00:48:24;97931.47;;;-0.94;90.32
22580;BME280;11456;47.030;15.396;2023-01-30T00:50:50;97925.75;;;-0.85;90.43
22580;BME280;11456;47.030;15.396;2023-01-30T00:53:17;97931.16;;;-0.88;90.15
22580;BME280;11456;47.030;15.396;2023-01-30T00:55:44;97929.13;;;-0.83;89.87
22580;BME280;11456;47.030;15.396;2023-01-30T00:58:11;97930.00;;;-0.82;89.48
22580;BME280;11456;47.030;15.396;2023-01-30T01:00:38;97936.31;;;-0.85;89.94
22580;BME280;11456;47.030;15.396;2023-01-30T01:03:05;97942.91;;;-0.93;89.51
22580;BME280;11456;47.030;15.396;2023-01-30T01:05:32;97937.97;;;-1.01;89.64
22580;BME280;11456;47.030;15.396;2023-01-30T01:07:59;97940.69;;;-1.02;90.12
22580;BME280;11456;47.030;15.396;2023-01-30T01:10:26;97937.34;;;-1.06;89.37
22580;BME280;11456;47.030;15.396;2023-01-30T01:12:52;97940.09;;;-1.26;90.08
22580;BME280;11456;47.030;15.396;2023-01-30T01:15:19;97925.53;;;-1.16;90.52
22580;BME280;11456;47.030;15.396;2023-01-30T01:17:47;97921.66;;;-1.28;89.95
22580;BME280;11456;47.030;15.396;2023-01-30T01:20:14;97911.66;;;-1.21;90.20
22580;BME280;11456;47.030;15.396;2023-01-30T01:22:41;97907.22;;;-1.21;89.93
22580;BME280;11456;47.030;15.396;2023-01-30T01:25:07;97921.38;;;-1.40;89.61
22580;BME280;11456;47.030;15.396;2023-01-30T01:27:35;97911.28;;;-1.49;90.21
22580;BME280;11456;47.030;15.396;2023-01-30T01:30:01;97911.28;;;-1.49;90.59
22580;BME280;11456;47.030;15.396;2023-01-30T01:32:28;97920.13;;;-1.50;90.68
22580;BME280;11456;47.030;15.396;2023-01-30T01:34:55;97916.25;;;-1.43;90.59
22580;BME280;11456;47.030;15.396;2023-01-30T01:37:21;97915.97;;;-1.37;90.55
22580;BME280;11456;47.030;15.396;2023-01-30T01:39:48;97921.25;;;-1.37;90.66
22580;BME280;11456;47.030;15.396;2023-01-30T01:42:35;97911.84;;;-1.62;90.51
22580;BME280;11456;47.030;15.396;2023-01-30T01:47:30;97908.56;;;-1.67;90.45
22580;BME280;11456;47.030;15.396;2023-01-30T01:49:59;97903.84;;;-1.79;91.52
22580;BME280;11456;47.030;15.396;2023-01-30T01:52:26;97905.25;;;-1.72;90.70
22580;BME280;11456;47.030;15.396;2023-01-30T01:55:00;97897.00;;;-1.83;91.42
22580;BME280;11456;47.030;15.396;2023-01-30T01:57:30;97891.88;;;-1.86;92.27
22580;BME280;11456;47.030;15.396;2023-01-30T02:00:01;97894.72;;;-1.72;91.74
22580;BME280;11456;47.030;15.396;2023-01-30T02:02:41;97887.88;;;-1.76;91.88
22580;BME280;11456;47.030;15.396;2023-01-30T02:05:09;97895.22;;;-1.64;90.75
22580;BME280;11456;47.030;15.396;2023-01-30T02:07:43;97885.88;;;-1.71;91.45
22580;BME280;11456;47.030;15.396;2023-01-30T02:10:15;97886.31;;;-1.61;91.55
22580;BME280;11456;47.030;15.396;2023-01-30T02:12:43;97879.25;;;-1.60;90.92
22580;BME280;11456;47.030;15.396;2023-01-30T02:15:10;97880.28;;;-1.65;90.80
22580;BME280;11456;47.030;15.396;2023-01-30T02:17:37;97886.16;;;-1.58;90.80
22580;BME280;11456;47.030;15.396;2023-01-30T02:33:28;97864.03;;;-1.93;90.59
22580;BME280;11456;47.030;15.396;2023-01-30T02:36:00;97850.75;;;-2.10;90.25
22580;BME280;11456;47.030;15.396;2023-01-30T02:38:46;97860.56;;;-2.32;91.47
22580;BME280;11456;47.030;15.396;2023-01-30T02:41:20;97856.53;;;-2.21;91.27
22580;BME280;11456;47.030;15.396;2023-01-30T02:43:59;97848.84;;;-2.46;91.18
22580;BME280;11456;47.030;15.396;2023-01-30T02:49:35;97843.47;;;-2.24;91.45
22580;BME280;11456;47.030;15.396;2023-01-30T02:52:05;97840.91;;;-2.25;91.48
22580;BME280;11456;47.030;15.396;2023-01-30T02:54:33;97838.91;;;-2.20;91.98
22580;BME280;11456;47.030;15.396;2023-01-30T02:56:59;97840.91;;;-2.25;91.39
22580;BME280;11456;47.030;15.396;2023-01-30T02:59:37;97836.34;;;-2.22;91.00
22580;BME280;11456;47.030;15.396;2023-01-30T03:04:59;97842.63;;;-2.24;90.37
22580;BME280;11456;47.030;15.396;2023-01-30T03:12:57;97837.47;;;-2.27;90.47
22580;BME280;11456;47.030;15.396;2023-01-30T03:15:27;97841.47;;;-2.37;90.90
22580;BME280;11456;47.030;15.396;2023-01-30T03:17:55;97839.19;;;-2.26;91.08
22580;BME280;11456;47.030;15.396;2023-01-30T03:20:22;97829.63;;;-2.29;89.92
22580;BME280;11456;47.030;15.396;2023-01-30T03:22:49;97832.19;;;-2.27;90.09
22580;BME280;11456;47.030;15.396;2023-01-30T03:25:17;97831.38;;;-2.48;90.15
22580;BME280;11456;47.030;15.396;2023-01-30T03:27:45;97824.19;;;-2.45;90.41
22580;BME280;11456;47.030;15.396;2023-01-30T03:30:12;97826.16;;;-2.50;90.06
22580;BME280;11456;47.030;15.396;2023-01-30T03:32:39;97828.63;;;-2.45;90.30
22580;BME280;11456;47.030;15.396;2023-01-30T03:35:06;97825.13;;;-2.46;90.04
22580;BME280;11456;47.030;15.396;2023-01-30T03:37:32;97825.13;;;-2.46;89.56
22580;BME280;11456;47.030;15.396;2023-01-30T03:39:59;97813.78;;;-2.48;89.49
22580;BME280;11456;47.030;15.396;2023-01-30T03:42:26;97812.66;;;-2.42;89.39
22580;BME280;11456;47.030;15.396;2023-01-30T03:44:53;97819.63;;;-2.41;89.24
22580;BME280;11456;47.030;15.396;2023-01-30T03:47:19;97809.69;;;-2.55;88.96
22580;BME280;11456;47.030;15.396;2023-01-30T03:49:48;97811.47;;;-2.55;89.26
22580;BME280;11456;47.030;15.396;2023-01-30T03:52:14;97817.91;;;-2.81;89.58
22580;BME280;11456;47.030;15.396;2023-01-30T03:54:41;97809.59;;;-2.72;89.80
22580;BME280;11456;47.030;15.396;2023-01-30T03:57:08;97804.22;;;-2.69;90.06
22580;BME280;11456;47.030;15.396;2023-01-30T03:59:34;97807.34;;;-2.61;90.02
22580;BME280;11456;47.030;15.396;2023-01-30T04:02:06;97801.22;;;-2.61;90.00
22580;BME280;11456;47.030;15.396;2023-01-30T04:04:33;97802.28;;;-2.65;89.83
22580;BME280;11456;47.030;15.396;2023-01-30T04:07:03;97790.03;;;-2.66;89.75
22580;BME280;11456;47.030;15.396;2023-01-30T04:09:31;97780.28;;;-2.64;90.00
22580;BME280;11456;47.030;15.396;2023-01-30T04:11:57;97783.03;;;-2.88;89.65
22580;BME280;11456;47.030;15.396;2023-01-30T04:14:27;97776.75;;;-3.04;89.91
22580;BME280;11456;47.030;15.396;2023-01-30T04:17:32;97778.56;;;-2.86;90.56
22580;BME280;11456;47.030;15.396;2023-01-30T04:20:07;97777.97;;;-2.72;90.52
22580;BME280;11456;47.030;15.396;2023-01-30T04:22:36;97772.06;;;-2.97;90.03
22580;BME280;11456;47.030;15.396;2023-01-30T04:25:02;97775.84;;;-3.03;90.26
22580;BME280;11456;47.030;15.396;2023-01-30T04:27:29;97765.50;;;-3.07;90.47
22580;BME280;11456;47.030;15.396;2023-01-30T04:30:08;97765.88;;;-2.96;90.39
22580;BME280;11456;47.030;15.396;2023-01-30T04:32:35;97766.59;;;-2.93;90.18
22580;BME280;11456;47.030;15.396;2023-01-30T04:35:01;97760.56;;;-2.95;90.23
22580;BME280;11456;47.030;15.396;2023-01-30T04:37:28;97762.50;;;-3.00;89.98
22580;BME280;11456;47.030;15.396;2023-01-30T04:39:55;97761.53;;;-2.97;90.02
22580;BME280;11456;47.030;15.396;2023-01-30T04:42:24;97761.91;;;-3.06;90.43
22580;BME280;11456;47.030;15.396;2023-01-30T04:45:14;97753.91;;;-3.03;90.69
22580;BME280;11456;47.030;15.396;2023-01-30T04:47:42;97752.72;;;-2.96;90.88
22580;BME280;11456;47.030;15.396;2023-01-30T04:50:09;97759.09;;;-3.02;90.62
22580;BME280;11456;47.030;15.396;2023-01-30T04:52:36;97754.53;;;-2.98;90.81
22580;BME280;11456;47.030;15.396;2023-01-30T04:55:06;97743.22;;;-3.00;90.51
22580;BME280;11456;47.030;15.396;2023-01-30T04:57:33;97742.03;;;-2.93;90.51
22580;BME280;11456;47.030;15.396;2023-01-30T04:59:59;97747.81;;;-3.05;91.31
22580;BME280;11456;47.030;15.396;2023-01-30T05:02:26;97746.63;;;-2.98;91.18
22580;BME280;11456;47.030;15.396;2023-01-30T05:04:53;97746.00;;;-3.03;90.88
22580;BME280;11456;47.030;15.396;2023-01-30T05:07:19;97741.53;;;-3.01;90.88
22580;BME280;11456;47.030;15.396;2023-01-30T05:09:45;97738.25;;;-3.27;90.72
22580;BME280;11456;47.030;15.396;2023-01-30T05:12:13;97735.47;;;-3.24;91.06
22580;BME280;11456;47.030;15.396;2023-01-30T05:14:39;97730.72;;;-3.15;90.78
22580;BME280;11456;47.030;15.396;2023-01-30T05:17:06;97723.19;;;-3.04;91.22
22580;BME280;11456;47.030;15.396;2023-01-30T05:19:33;97722.56;;;-3.09;90.77
22580;BME280;11456;47.030;15.396;2023-01-30T05:22:00;97731.44;;;-3.12;91.36
22580;BME280;11456;47.030;15.396;2023-01-30T05:24:26;97726.50;;;-3.19;90.85
22580;BME280;11456;47.030;15.396;2023-01-30T05:26:53;97726.16;;;-3.12;90.83
22580;BME280;11456;47.030;15.396;2023-01-30T05:29:19;97723.75;;;-3.16;91.09
22580;BME280;11456;47.030;15.396;2023-01-30T05:31:46;97726.00;;;-3.07;91.87
22580;BME280;11456;47.030;15.396;2023-01-30T05:34:13;97714.78;;;-3.12;91.04
22580;BME280;11456;47.030;15.396;2023-01-30T05:36:39;97702.28;;;-3.07;91.17
22580;BME280;11456;47.030;15.396;2023-01-30T05:39:06;97710.19;;;-3.07;91.46
22580;BME280;11456;47.030;15.396;2023-01-30T05:41:32;97703.97;;;-3.06;91.12
22580;BME280;11456;47.030;15.396;2023-01-30T05:43:59;97698.69;;;-3.06;91.17
22580;BME280;11456;47.030;15.396;2023-01-30T05:46:25;97703.97;;;-3.06;90.97
22580;BME280;11456;47.030;15.396;2023-01-30T05:48:51;97711.22;;;-3.11;90.63
22580;BME280;11456;47.030;15.396;2023-01-30T05:51:20;97705.38;;;-3.18;90.28
22580;BME280;11456;47.030;15.396;2023-01-30T05:53:46;97711.44;;;-3.36;90.47
22580;BME280;11456;47.030;15.396;2023-01-30T05:56:13;97696.88;;;-3.45;90.93
22580;BME280;11456;47.030;15.396;2023-01-30T05:58:40;97693.81;;;-3.34;91.95
22580;BME280;11456;47.030;15.396;2023-01-30T06:01:07;97694.66;;;-3.34;91.62
22580;BME280;11456;47.030;15.396;2023-01-30T06:03:35;97693.06;;;-3.17;91.52
22580;BME280;11456;47.030;15.396;2023-01-30T06:06:02;97698.66;;;-3.25;91.43
22580;BME280;11456;47.030;15.396;2023-01-30T06:08:29;97690.56;;;-3.20;91.37
22580;BME280;11456;47.030;15.396;2023-01-30T06:11:02;97686.47;;;-3.07;91.64
22580;BME280;11456;47.030;15.396;2023-01-30T06:13:29;97688.03;;;-3.03;91.30
22580;BME280;11456;47.030;15.396;2023-01-30T06:15:56;97700.38;;;-3.24;91.72
22580;BME280;11456;47.030;15.396;2023-01-30T06:18:23;97701.22;;;-3.24;92.71
22580;BME280;11456;47.030;15.396;2023-01-30T06:20:50;97699.41;;;-3.21;93.08
22580;BME280;11456;47.030;15.396;2023-01-30T06:23:17;97695.72;;;-2.99;93.24
22580;BME280;11456;47.030;15.396;2023-01-30T06:25:44;97681.34;;;-2.92;93.36
22580;BME280;11456;47.030;15.396;2023-01-30T06:28:11;97669.56;;;-3.22;95.39
22580;BME280;11456;47.030;15.396;2023-01-30T06:30:38;97675.66;;;-3.01;96.09
22580;BME280;11456;47.030;15.396;2023-01-30T06:33:04;97675.81;;;-2.86;95.38
22580;BME280;11456;47.030;15.396;2023-01-30T06:35:31;97688.13;;;-2.67;94.92
22580;BME280;11456;47.030;15.396;2023-01-30T06:37:57;97701.31;;;-2.49;94.56
22580;BME280;11456;47.030;15.396;2023-01-30T06:40:24;97706.47;;;-2.46;94.12
22580;BME280;11456;47.030;15.396;2023-01-30T06:42:51;97688.34;;;-2.34;94.05
22580;BME280;11456;47.030;15.396;2023-01-30T06:45:17;97686.69;;;-1.65;94.60
22580;BME280;11456;47.030;15.396;2023-01-30T06:47:45;97686.63;;;-1.29;91.86
22580;BME280;11456;47.030;15.396;2023-01-30T06:50:12;97679.06;;;-1.71;91.06
22580;BME280;11456;47.030;15.396;2023-01-30T06:52:42;97688.88;;;-1.56;90.94
22580;BME280;11456;47.030;15.396;2023-01-30T06:55:09;97687.72;;;-1.68;91.26
22580;BME280;11456;47.030;15.396;2023-01-30T06:57:36;97679.78;;;-1.68;91.41
22580;BME280;11456;47.030;15.396;2023-01-30T07:00:06;97684.09;;;-1.84;92.32
22580;BME280;11456;47.030;15.396;2023-01-30T07:02:33;97672.09;;;-1.72;91.81
22580;BME280;11456;47.030;15.396;2023-01-30T07:05:01;97681.19;;;-1.60;91.66
22580;BME280;11456;47.030;15.396;2023-01-30T07:07:28;97676.97;;;-1.82;92.16
22580;BME280;11456;47.030;15.396;2023-01-30T07:09:55;97670.69;;;-1.45;92.07
22580;BME280;11456;47.030;15.396;2023-01-30T07:12:33;97680.47;;;-1.64;92.39
22580;BME280;11456;47.030;15.396;2023-01-30T07:15:00;97688.63;;;-1.69;93.79
22580;BME280;11456;47.030;15.396;2023-01-30T07:17:26;97684.22;;;-1.68;94.48
22580;BME280;11456;47.030;15.396;2023-01-30T07:19:53;97690.81;;;-1.59;93.97
22580;BME280;11456;47.030;15.396;2023-01-30T07:22:19;97676.38;;;-1.35;94.45
22580;BME280;11456;47.030;15.396;2023-01-30T07:24:46;97670.16;;;-1.51;93.53
22580;BME280;11456;47.030;15.396;2023-01-30T07:27:12;97663.00;;;-1.49;93.15
22580;BME280;11456;47.030;15.396;2023-01-30T07:29:39;97648.38;;;-1.39;93.57
22580;BME280;11456;47.030;15.396;2023-01-30T07:32:06;97655.22;;;-1.52;93.59
22580;BME280;11456;47.030;15.396;2023-01-30T07:34:32;97648.25;;;-1.53;95.61
22580;BME280;11456;47.030;15.396;2023-01-30T07:36:59;97652.28;;;-1.29;94.85
22580;BME280;11456;47.030;15.396;2023-01-30T07:39:26;97651.97;;;-1.23;94.48
22580;BME280;11456;47.030;15.396;2023-01-30T07:41:52;97645.41;;;-1.16;94.25
22580;BME280;11456;47.030;15.396;2023-01-30T07:44:23;97630.44;;;-1.15;94.48
22580;BME280;11456;47.030;15.396;2023-01-30T07:46:49;97629.91;;;-1.22;94.38
22580;BME280;11456;47.030;15.396;2023-01-30T07:49:16;97624.28;;;-1.33;94.60
22580;BME280;11456;47.030;15.396;2023-01-30T07:51:43;97626.16;;;-1.18;95.59
22580;BME280;11456;47.030;15.396;2023-01-30T07:54:09;97621.22;;;-1.08;94.91
22580;BME280;11456;47.030;15.396;2023-01-30T07:56:35;97619.53;;;-0.94;94.29
22580;BME280;11456;47.030;15.396;2023-01-30T07:59:02;97621.13;;;-1.07;94.64
22580;BME280;11456;47.030;15.396;2023-01-30T08:01:31;97614.47;;;-0.65;94.21
22580;BME280;11456;47.030;15.396;2023-01-30T08:03:58;97613.34;;;-0.61;92.69
22580;BME280;11456;47.030;15.396;2023-01-30T08:06:24;97616.84;;;-0.61;92.23
22580;BME280;11456;47.030;15.396;2023-01-30T08:08:51;97617.16;;;-0.83;92.42
22580;BME280;11456;47.030;15.396;2023-01-30T08:11:17;97611.88;;;-0.83;92.28
22580;BME280;11456;47.030;15.396;2023-01-30T08:13:44;97596.88;;;-0.66;92.36
22580;BME280;11456;47.030;15.396;2023-01-30T08:16:10;97595.34;;;-0.70;92.50
22580;BME280;11456;47.030;15.396;2023-01-30T08:18:37;97592.03;;;-0.58;91.26
22580;BME280;11456;47.030;15.396;2023-01-30T08:21:04;97599.88;;;-0.41;91.41
22580;BME280;11456;47.030;15.396;2023-01-30T08:23:31;97590.72;;;-0.51;91.96
22580;BME280;11456;47.030;15.396;2023-01-30T08:25:59;97579.88;;;-0.15;88.52
22580;BME280;11456;47.030;15.396;2023-01-30T08:28:27;97582.09;;;-0.70;91.14
22580;BME280;11456;47.030;15.396;2023-01-30T08:30:54;97596.88;;;-0.66;91.29
22580;BME280;11456;47.030;15.396;2023-01-30T08:33:20;97592.69;;;-0.70;92.97
22580;BME280;11456;47.030;15.396;2023-01-30T08:35:47;97591.25;;;-0.60;93.88
22580;BME280;11456;47.030;15.396;2023-01-30T08:38:14;97581.69;;;-0.47;93.86
22580;BME280;11456;47.030;15.396;2023-01-30T08:40:41;97579.81;;;-0.45;93.09
22580;BME280;11456;47.030;15.396;2023-01-30T08:43:07;97573.84;;;-0.33;93.51
22580;BME280;11456;47.030;15.396;2023-01-30T08:45:34;97571.88;;;0.30;92.09
22580;BME280;11456;47.030;15.396;2023-01-30T08:48:04;97583.63;;;0.55;90.80
22580;BME280;11456;47.030;15.396;2023-01-30T08:50:31;97581.53;;;0.46;91.13
22580;BME280;11456;47.030;15.396;2023-01-30T08:53:02;97576.91;;;1.34;89.33
22580;BME280;11456;47.030;15.396;2023-01-30T08:55:29;97572.47;;;1.20;88.76
22580;BME280;11456;47.030;15.396;2023-01-30T08:57:56;97541.28;;;1.65;86.80
22580;BME280;11456;47.030;15.396;2023-01-30T09:00:23;97542.59;;;1.72;87.49
22580;BME280;11456;47.030;15.396;2023-01-30T09:02:51;97542.94;;;2.58;83.50
22580;BME280;11456;47.030;15.396;2023-01-30T09:05:18;97544.88;;;2.43;79.13
22580;BME280;11456;47.030;15.396;2023-01-30T09:07:44;97527.81;;;2.96;77.02
22580;BME280;11456;47.030;15.396;2023-01-30T09:10:11;97530.94;;;2.39;78.31
22580;BME280;11456;47.030;15.396;2023-01-30T09:12:37;97533.72;;;1.98;75.70
22580;BME280;11456;47.030;15.396;2023-01-30T09:15:04;97514.03;;;1.49;78.84
22580;BME280;11456;47.030;15.396;2023-01-30T09:17:31;97523.06;;;1.86;78.36
22580;BME280;11456;47.030;15.396;2023-01-30T09:19:57;97507.84;;;2.27;77.78
22580;BME280;11456;47.030;15.396;2023-01-30T09:22:24;97519.88;;;2.71;76.20
22580;BME280;11456;47.030;15.396;2023-01-30T09:24:52;97498.16;;;3.39;77.38
22580;BME280;11456;47.030;15.396;2023-01-30T09:27:18;97508.72;;;2.66;75.62
22580;BME280;11456;47.030;15.396;2023-01-30T09:29:45;97501.91;;;2.24;79.38
22580;BME280;11456;47.030;15.396;2023-01-30T09:32:11;97501.78;;;2.51;78.16
22580;BME280;11456;47.030;15.396;2023-01-30T09:34:37;97495.91;;;1.95;77.28
22580;BME280;11456;47.030;15.396;2023-01-30T09:37:04;97493.16;;;2.85;78.03
22580;BME280;11456;47.030;15.396;2023-01-30T09:39:30;97490.44;;;2.74;75.78
22580;BME280;11456;47.030;15.396;2023-01-30T09:47:47;97483.00;;;2.28;76.98
22580;BME280;11456;47.030;15.396;2023-01-30T09:57:39;97477.13;;;2.74;74.79
22580;BME280;11456;47.030;15.396;2023-01-30T10:00:11;97469.47;;;3.18;72.14
22580;BME280;11456;47.030;15.396;2023-01-30T10:02:46;97459.16;;;3.61;71.26
22580;BME280;11456;47.030;15.396;2023-01-30T10:05:15;97460.94;;;3.50;70.35
22580;BME280;11456;47.030;15.396;2023-01-30T10:16:22;97453.38;;;2.83;73.30
22580;BME280;11456;47.030;15.396;2023-01-30T10:23:31;97439.31;;;3.89;73.57
22580;BME280;11456;47.030;15.396;2023-01-30T10:26:04;97432.50;;;2.90;75.28
22580;BME280;11456;47.030;15.396;2023-01-30T10:28:34;97429.28;;;3.58;73.09
22580;BME280;11456;47.030;15.396;2023-01-30T10:31:03;97434.59;;;3.58;72.50
22580;BME280;11456;47.030;15.396;2023-01-30T10:33:32;97443.16;;;3.85;71.13
22580;BME280;11456;47.030;15.396;2023-01-30T10:36:02;97438.53;;;3.76;70.78
22580;BME280;11456;47.030;15.396;2023-01-30T10:38:40;97422.31;;;3.79;71.97
22580;BME280;11456;47.030;15.396;2023-01-30T10:41:23;97422.13;;;4.04;70.24
22580;BME280;11456;47.030;15.396;2023-01-30T10:43:56;97425.53;;;4.07;70.32
22580;BME280;11456;47.030;15.396;2023-01-30T10:46:30;97422.44;;;4.46;68.94
22580;BME280;11456;47.030;15.396;2023-01-30T10:49:01;97421.38;;;4.71;67.42
22580;BME280;11456;47.030;15.396;2023-01-30T10:55:02;97403.78;;;4.57;65.91
22580;BME280;11456;47.030;15.396;2023-01-30T11:02:29;97372.91;;;5.73;63.52
22580;BME280;11456;47.030;15.396;2023-01-30T11:05:09;97364.09;;;6.14;60.60
22580;BME280;11456;47.030;15.396;2023-01-30T11:07:38;97358.94;;;6.52;59.34
22580;BME280;11456;47.030;15.396;2023-01-30T11:10:13;97355.84;;;6.26;60.96
22580;BME280;11456;47.030;15.396;2023-01-30T11:12:40;97353.59;;;7.11;58.51
22580;BME280;11456;47.030;15.396;2023-01-30T11:15:07;97343.44;;;6.96;59.42
22580;BME280;11456;47.030;15.396;2023-01-30T11:17:35;97336.63;;;6.82;58.60
22580;BME280;11456;47.030;15.396;2023-01-30T11:20:23;97332.94;;;6.73;59.40
22580;BME280;11456;47.030;15.396;2023-01-30T11:22:50;97334.75;;;7.22;58.21
22580;BME280;11456;47.030;15.396;2023-01-30T11:25:18;97328.91;;;6.98;59.25
22580;BME280;11456;47.030;15.396;2023-01-30T11:28:00;97318.34;;;7.83;58.80
22580;BME280;11456;47.030;15.396;2023-01-30T11:30:33;97312.47;;;7.41;58.68
22580;BME280;11456;47.030;15.396;2023-01-30T11:33:14;97316.13;;;7.50;56.60
22580;BME280;11456;47.030;15.396;2023-01-30T11:35:52;97291.47;;;8.12;55.49
22580;BME280;11456;47.030;15.396;2023-01-30T11:38:24;97280.28;;;7.80;54.92
22580;BME280;11456;47.030;15.396;2023-01-30T11:43:31;97271.91;;;9.64;50.96
22580;BME280;11456;47.030;15.396;2023-01-30T11:45:58;97287.53;;;8.80;53.39
22580;BME280;11456;47.030;15.396;2023-01-30T11:48:26;97276.00;;;9.33;51.07
22580;BME280;11456;47.030;15.396;2023-01-30T11:51:13;97276.94;;;9.68;49.11
22580;BME280;11456;47.030;15.396;2023-01-30T11:53:41;97268.69;;;9.08;50.01
22580;BME280;11456;47.030;15.396;2023-01-30T11:56:20;97265.53;;;8.03;53.11
22580;BME280;11456;47.030;15.396;2023-01-30T11:58:53;97268.09;;;9.14;53.63
22580;BME280;11456;47.030;15.396;2023-01-30T12:01:27;97263.13;;;8.92;51.95
22580;BME280;11456;47.030;15.396;2023-01-30T12:03:55;97273.84;;;8.47;51.61
22580;BME280;11456;47.030;15.396;2023-01-30T12:06:35;97270.84;;;8.32;52.20
22580;BME280;11456;47.030;15.396;2023-01-30T12:09:02;97253.34;;;10.05;48.81
22580;BME280;11456;47.030;15.396;2023-01-30T12:24:25;97219.28;;;9.88;49.62
22580;BME280;11456;47.030;15.396;2023-01-30T12:26:55;97215.44;;;9.21;50.68
22580;BME280;11456;47.030;15.396;2023-01-30T12:29:33;97214.63;;;9.29;51.58
22580;BME280;11456;47.030;15.396;2023-01-30T12:32:11;97222.78;;;9.19;51.95
22580;BME280;11456;47.030;15.396;2023-01-30T12:34:39;97224.59;;;9.54;51.13
22580;BME280;11456;47.030;15.396;2023-01-30T12:39:58;97204.84;;;9.02;51.74
22580;BME280;11456;47.030;15.396;2023-01-30T12:50:28;97208.00;;;9.58;50.65
22580;BME280;11456;47.030;15.396;2023-01-30T12:58:21;97179.53;;;9.74;50.59
22580;BME280;11456;47.030;15.396;2023-01-30T13:00:59;97189.41;;;9.21;51.62
22580;BME280;11456;47.030;15.396;2023-01-30T13:08:35;97168.84;;;10.58;49.15
22580;BME280;11456;47.030;15.396;2023-01-30T13:14:02;97167.38;;;9.18;52.32
22580;BME280;11456;47.030;15.396;2023-01-30T13:16:53;97157.34;;;8.84;51.41
22580;BME280;11456;47.030;15.396;2023-01-30T13:19:30;97163.09;;;9.51;50.35
22580;BME280;11456;47.030;15.396;2023-01-30T13:22:16;97164.66;;;9.36;50.00
22580;BME280;11456;47.030;15.396;2023-01-30T13:27:18;97169.59;;;10.34;47.85
22580;BME280;11456;47.030;15.396;2023-01-30T13:29:46;97162.91;;;10.04;47.76
22580;BME280;11456;47.030;15.396;2023-01-30T13:32:14;97157.28;;;9.63;48.25
22580;BME280;11456;47.030;15.396;2023-01-30T13:34:43;97148.19;;;9.90;47.85
22580;BME280;11456;47.030;15.396;2023-01-30T13:42:18;97134.97;;;10.05;48.19
22580;BME280;11456;47.030;15.396;2023-01-30T13:44:47;97134.41;;;9.59;48.83
22580;BME280;11456;47.030;15.396;2023-01-30T13:47:59;97134.25;;;9.95;48.26
22580;BME280;11456;47.030;15.396;2023-01-30T13:50:18;97125.44;;;9.25;49.04
22580;BME280;11456;47.030;15.396;2023-01-30T14:00:33;97135.56;;;9.83;48.74
22580;BME280;11456;47.030;15.396;2023-01-30T14:03:22;97131.25;;;9.64;49.22
22580;BME280;11456;47.030;15.396;2023-01-30T14:08:17;97108.19;;;9.28;49.89
22580;BME280;11456;47.030;15.396;2023-01-30T14:10:45;97128.84;;;9.09;50.84
22580;BME280;11456;47.030;15.396;2023-01-30T14:13:12;97127.78;;;9.80;49.44
22580;BME280;11456;47.030;15.396;2023-01-30T14:18:24;97115.59;;;8.72;54.05
22580;BME280;11456;47.030;15.396;2023-01-30T14:20:52;97126.91;;;8.76;53.50
22580;BME280;11456;47.030;15.396;2023-01-30T14:23:36;97132.38;;;9.10;54.13
22580;BME280;11456;47.030;15.396;2023-01-30T14:26:03;97106.53;;;9.09;54.54
22580;BME280;11456;47.030;15.396;2023-01-30T14:30:57;97112.09;;;8.27;55.41
22580;BME280;11456;47.030;15.396;2023-01-30T14:38:29;97102.38;;;7.81;57.95
22580;BME280;11456;47.030;15.396;2023-01-30T14:43:25;97112.81;;;8.01;56.48
22580;BME280;11456;47.030;15.396;2023-01-30T14:45:55;97110.88;;;8.49;56.03
22580;BME280;11456;47.030;15.396;2023-01-30T14:50:49;97107.19;;;8.67;55.50
22580;BME280;11456;47.030;15.396;2023-01-30T14:53:15;97115.00;;;8.78;55.11
22580;BME280;11456;47.030;15.396;2023-01-30T14:55:42;97120.00;;;8.73;56.21
22580;BME280;11456;47.030;15.396;2023-01-30T14:58:11;97123.38;;;9.19;53.64
22580;BME280;11456;47.030;15.396;2023-01-30T15:00:40;97114.78;;;8.90;54.54
22580;BME280;11456;47.030;15.396;2023-01-30T15:03:08;97112.75;;;7.93;58.30
22580;BME280;11456;47.030;15.396;2023-01-30T15:05:42;97137.00;;;7.08;62.74
22580;BME280;11456;47.030;15.396;2023-01-30T15:08:22;97135.16;;;6.41;65.50
22580;BME280;11456;47.030;15.396;2023-01-30T15:18:34;97124.03;;;5.77;71.00
22580;BME280;11456;47.030;15.396;2023-01-30T15:23:57;97116.88;;;4.75;78.01
22580;BME280;11456;47.030;15.396;2023-01-30T15:26:39;97134.19;;;4.60;79.04
22580;BME280;11456;47.030;15.396;2023-01-30T15:29:20;97129.38;;;4.54;80.21